Strona główna
METAR-TAF:

METAR-TAF

Lotnisko :

Port lotniczy Chambéry-Savoie

Chambery / Aix-Les-Bains, Francja

Szerokość geograficzna: 45-39N, Długość geograficzna: 005-53E, wysokość: 235 m

Aktualna obserwacja pogody

Raport powstał 29 minut temu, godzina 11:30 UTC
Wiatr 2 kt z kierunków zmiennych
Temperatura 6°C
Wilgotność 93%
Ciśnienie 1010 hPa
Widzialność 10 km lub więcej
Brak chmur poniżej 1500 m i brak chmur cumulonimbus

METAR: LFLB 161130Z AUTO VRB02KT CAVOK 06/05 Q1010 NOSIG

czas: 12:59 (11:59 UTC)

Prognoza

Raport powstał 59 minut temu, godzina 11:00 UTC
Prognoza ważna od 16 godzina 12 UTC do 17 godzina 12 UTC
Wiatr 3 kt z kierunków zmiennych
Widzialność 10 km lub więcej
Brak chmur poniżej 1500 m i brak chmur cumulonimbus
Przejściowo
od 16 godzina 14 UTC do 16 godzina 16 UTC
Wiatr 8 kt od południowo-południowy zachód

TAF: LFLB 161100Z 1612/1712 VRB03KT CAVOK TEMPO 1614/1616 21008KT

Obserwacja i prognoza pogody dla ponad 4000 lotnisk (raport METAR i TAF).

Dostępne stacje oznaczono żółtymi i czerwonymi punktami na mapie.

Najedź kursorem aby zobaczyć nazwę stacji.

Kliknij aby zobaczyć obserwacje i prognozy pogody.

Aby zmienić mapę: kliknij na zielony przycisk z czarnym krzyżykiem, aby powiększyć; na zielony przycisk z myślnikiem, aby pomniejszyć; na zielone strzałki, aby przejść do map sąsiednich.


METAR-TAF: